地図

経路データ

SID SEASON NUMBER BASIN SUBBASIN NAME ISO_TIME NATURE LAT LON WMO_WIND WMO_PRES WMO_AGENCY TRACK_TYPE DIST2LAND LANDFALL IFLAG USA_AGENCY USA_ATCF_ID USA_LAT USA_LON USA_RECORD USA_STATUS USA_WIND USA_PRES USA_SSHS USA_R34_NE USA_R34_SE USA_R34_SW USA_R34_NW USA_R50_NE USA_R50_SE USA_R50_SW USA_R50_NW USA_R64_NE USA_R64_SE USA_R64_SW USA_R64_NW USA_POCI USA_ROCI USA_RMW USA_EYE TOKYO_LAT TOKYO_LON TOKYO_GRADE TOKYO_WIND TOKYO_PRES TOKYO_R50_DIR TOKYO_R50_LONG TOKYO_R50_SHORT TOKYO_R30_DIR TOKYO_R30_LONG TOKYO_R30_SHORT TOKYO_LAND CMA_LAT CMA_LON CMA_CAT CMA_WIND CMA_PRES HKO_LAT HKO_LON HKO_CAT HKO_WIND HKO_PRES NEWDELHI_LAT NEWDELHI_LON NEWDELHI_GRADE NEWDELHI_WIND NEWDELHI_PRES NEWDELHI_CI NEWDELHI_DP NEWDELHI_POCI REUNION_LAT REUNION_LON REUNION_TYPE REUNION_WIND REUNION_PRES REUNION_TNUM REUNION_CI REUNION_RMW REUNION_R34_NE REUNION_R34_SE REUNION_R34_SW REUNION_R34_NW REUNION_R50_NE REUNION_R50_SE REUNION_R50_SW REUNION_R50_NW REUNION_R64_NE REUNION_R64_SE REUNION_R64_SW REUNION_R64_NW BOM_LAT BOM_LON BOM_TYPE BOM_WIND BOM_PRES BOM_TNUM BOM_CI BOM_RMW BOM_R34_NE BOM_R34_SE BOM_R34_SW BOM_R34_NW BOM_R50_NE BOM_R50_SE BOM_R50_SW BOM_R50_NW BOM_R64_NE BOM_R64_SE BOM_R64_SW BOM_R64_NW BOM_ROCI BOM_POCI BOM_EYE BOM_POS_METHOD BOM_PRES_METHOD NADI_LAT NADI_LON NADI_CAT NADI_WIND NADI_PRES WELLINGTON_LAT WELLINGTON_LON WELLINGTON_WIND WELLINGTON_PRES DS824_LAT DS824_LON DS824_STAGE DS824_WIND DS824_PRES TD9636_LAT TD9636_LON TD9636_STAGE TD9636_WIND TD9636_PRES TD9635_LAT TD9635_LON TD9635_WIND TD9635_PRES TD9635_ROCI NEUMANN_LAT NEUMANN_LON NEUMANN_CLASS NEUMANN_WIND NEUMANN_PRES MLC_LAT MLC_LON MLC_CLASS MLC_WIND MLC_PRES USA_GUST BOM_GUST BOM_GUST_PER REUNION_GUST REUNION_GUST_PER USA_SEAHGT USA_SEARAD_NE USA_SEARAD_SE USA_SEARAD_SW USA_SEARAD_NW STORM_SPEED STORM_DIR
1966204N31319 1966 46 NA NA DOROTHY 1966-07-22 18:00:00 TS 31.0000 -41.0000 25 hurdat_atl main 2026 1983 O_____________ hurdat_atl AL041966 31.0000 -41.0000 TD 25 -1 7 319
1966204N31319 1966 46 NA NA DOROTHY 1966-07-22 21:00:00 TS 31.2777 -41.2795 main 1983 1954 P_____________ AL041966 31.2777 -41.2795 TD 25 -1 7 319
1966204N31319 1966 46 NA NA DOROTHY 1966-07-23 00:00:00 TS 31.5000 -41.5000 25 hurdat_atl main 1954 1940 O_____________ hurdat_atl AL041966 31.5000 -41.5000 TD 25 -1 5 320
1966204N31319 1966 46 NA NA DOROTHY 1966-07-23 03:00:00 TS 31.6299 -41.6227 main 1940 1926 P_____________ AL041966 31.6299 -41.6227 TD 25 -1 3 319
1966204N31319 1966 46 NA NA DOROTHY 1966-07-23 06:00:00 TS 31.7000 -41.7000 25 hurdat_atl main 1926 1922 O_____________ hurdat_atl AL041966 31.7000 -41.7000 TD 25 -1 2 307
1966204N31319 1966 46 NA NA DOROTHY 1966-07-23 09:00:00 TS 31.7500 -41.8075 main 1912 1907 P_____________ AL041966 31.7500 -41.8075 TD 32 -1 2 301
1966204N31319 1966 46 NA NA DOROTHY 1966-07-23 12:00:00 TS 31.8000 -41.9000 40 hurdat_atl main 1907 1893 O_____________ hurdat_atl AL041966 31.8000 -41.9000 TS 40 0 2 317
1966204N31319 1966 46 NA NA DOROTHY 1966-07-23 15:00:00 TS 31.8925 -41.9650 main 1893 1883 P_____________ AL041966 31.8925 -41.9650 TS 40 0 2 335
1966204N31319 1966 46 NA NA DOROTHY 1966-07-23 18:00:00 TS 32.0000 -42.0000 40 hurdat_atl main 1883 1873 O_____________ hurdat_atl AL041966 32.0000 -42.0000 TS 40 0 2 347
1966204N31319 1966 46 NA NA DOROTHY 1966-07-23 21:00:00 TS 32.1000 -42.0000 main 1873 1863 P_____________ AL041966 32.1000 -42.0000 TS 47 0 2 8
1966204N31319 1966 46 NA NA DOROTHY 1966-07-24 00:00:00 TS 32.2000 -42.0000 55 hurdat_atl main 1863 1853 O_____________ hurdat_atl AL041966 32.2000 -42.0000 TS 55 0 2 347
1966204N31319 1966 46 NA NA DOROTHY 1966-07-24 03:00:00 TS 32.2925 -42.0425 main 1853 1839 P_____________ AL041966 32.2925 -42.0425 TS 57 0 2 335
1966204N31319 1966 46 NA NA DOROTHY 1966-07-24 06:00:00 TS 32.4000 -42.1000 60 hurdat_atl main 1839 1825 O_____________ hurdat_atl AL041966 32.4000 -42.1000 TS 60 0 3 337
1966204N31319 1966 46 NA NA DOROTHY 1966-07-24 09:00:00 TS 32.5425 -42.1649 main 1825 1805 P_____________ AL041966 32.5425 -42.1649 TS 60 0 3 344
1966204N31319 1966 46 NA NA DOROTHY 1966-07-24 12:00:00 TS 32.7000 -42.2000 60 998 hurdat_atl main 1805 1795 O_____________ hurdat_atl AL041966 32.7000 -42.2000 TS 60 998 0 3 0
1966204N31319 1966 46 NA NA DOROTHY 1966-07-24 15:00:00 TS 32.8500 -42.1800 main 1795 1780 P_____________ AL041966 32.8500 -42.1800 TS 62 0 3 16
1966204N31319 1966 46 NA NA DOROTHY 1966-07-24 18:00:00 TS 33.0000 -42.1000 65 hurdat_atl main 1780 1770 O_____________ hurdat_atl AL041966 33.0000 -42.1000 HU 65 1 3 28
1966204N31319 1966 46 NA NA DOROTHY 1966-07-24 21:00:00 TS 33.1349 -41.9947 main 1775 1760 P_____________ AL041966 33.1349 -41.9947 HU 65 1 4 40
1966204N31319 1966 46 NA NA DOROTHY 1966-07-25 00:00:00 TS 33.3000 -41.8000 65 hurdat_atl main 1764 1754 O_____________ hurdat_atl AL041966 33.3000 -41.8000 HU 65 1 6 49
1966204N31319 1966 46 NA NA DOROTHY 1966-07-25 03:00:00 TS 33.5202 -41.4726 main 1759 1749 P_____________ AL041966 33.5202 -41.4726 HU 65 1 8 49
1966204N31319 1966 46 NA NA DOROTHY 1966-07-25 06:00:00 TS 33.8000 -41.1000 65 hurdat_atl main 1750 1736 O_____________ hurdat_atl AL041966 33.8000 -41.1000 HU 65 1 9 45
1966204N31319 1966 46 NA NA DOROTHY 1966-07-25 09:00:00 TS 34.1276 -40.7479 main 1741 1715 P_____________ AL041966 34.1276 -40.7479 HU 65 1 9 35
1966204N31319 1966 46 NA NA DOROTHY 1966-07-25 12:00:00 TS 34.5000 -40.5000 65 hurdat_atl main 1715 1683 O_____________ hurdat_atl AL041966 34.5000 -40.5000 HU 65 1 8 18
1966204N31319 1966 46 NA NA DOROTHY 1966-07-25 15:00:00 TS 34.9073 -40.4322 main 1683 1642 P_____________ AL041966 34.9073 -40.4322 HU 65 1 8 1
1966204N31319 1966 46 NA NA DOROTHY 1966-07-25 18:00:00 TS 35.3000 -40.5000 65 997 hurdat_atl main 1642 1609 O_____________ hurdat_atl AL041966 35.3000 -40.5000 HU 65 997 1 8 349
1966204N31319 1966 46 NA NA DOROTHY 1966-07-25 21:00:00 TS 35.6449 -40.6048 main 1609 1572 P_____________ AL041966 35.6449 -40.6048 HU 65 1 6 338
1966204N31319 1966 46 NA NA DOROTHY 1966-07-26 00:00:00 TS 35.9000 -40.8000 65 hurdat_atl main 1572 1547 O_____________ hurdat_atl AL041966 35.9000 -40.8000 HU 65 1 6 315
1966204N31319 1966 46 NA NA DOROTHY 1966-07-26 03:00:00 TS 36.0376 -41.0851 main 1547 1522 P_____________ AL041966 36.0376 -41.0851 HU 65 1 5 292
1966204N31319 1966 46 NA NA DOROTHY 1966-07-26 06:00:00 TS 36.1000 -41.4000 65 hurdat_atl main 1522 1506 O_____________ hurdat_atl AL041966 36.1000 -41.4000 HU 65 1 5 283
1966204N31319 1966 46 NA NA DOROTHY 1966-07-26 09:00:00 TS 36.1500 -41.6726 main 1506 1487 P_____________ AL041966 36.1500 -41.6726 HU 65 1 4 284
1966204N31319 1966 46 NA NA DOROTHY 1966-07-26 12:00:00 TS 36.2000 -41.9000 65 989 hurdat_atl main 1487 1467 O_____________ hurdat_atl AL041966 36.2000 -41.9000 HU 65 989 1 4 293
1966204N31319 1966 46 NA NA DOROTHY 1966-07-26 15:00:00 TS 36.2925 -42.0874 main 1467 1453 P_____________ AL041966 36.2925 -42.0874 HU 65 1 3 310
1966204N31319 1966 46 NA NA DOROTHY 1966-07-26 18:00:00 TS 36.4000 -42.2000 65 hurdat_atl main 1453 1444 O_____________ hurdat_atl AL041966 36.4000 -42.2000 HU 65 1 2 322
1966204N31319 1966 46 NA NA DOROTHY 1966-07-26 21:00:00 TS 36.4549 -42.2448 main 1444 1435 P_____________ AL041966 36.4549 -42.2448 HU 65 1 2 8
1966204N31319 1966 46 NA NA DOROTHY 1966-07-27 00:00:00 TS 36.6000 -42.2000 65 hurdat_atl main 1435 1413 O_____________ hurdat_atl AL041966 36.6000 -42.2000 HU 65 1 5 14
1966204N31319 1966 46 NA NA DOROTHY 1966-07-27 03:00:00 TS 36.9475 -42.0874 main 1413 1380 P_____________ AL041966 36.9475 -42.0874 HU 65 1 8 17
1966204N31319 1966 46 NA NA DOROTHY 1966-07-27 06:00:00 TS 37.4000 -41.9000 65 hurdat_atl main 1380 1348 O_____________ hurdat_atl AL041966 37.4000 -41.9000 HU 65 1 10 19
1966204N31319 1966 46 NA NA DOROTHY 1966-07-27 09:00:00 TS 37.8800 -41.6728 main 1348 1332 P_____________ AL041966 37.8800 -41.6728 HU 65 1 10 24
1966204N31319 1966 46 NA NA DOROTHY 1966-07-27 12:00:00 TS 38.3000 -41.4000 65 990 hurdat_atl main 1332 1324 O_____________ hurdat_atl AL041966 38.3000 -41.4000 HU 65 990 1 8 34
1966204N31319 1966 46 NA NA DOROTHY 1966-07-27 15:00:00 TS 38.5299 -41.1143 main 1334 1325 P_____________ AL041966 38.5299 -41.1143 HU 67 1 6 50
1966204N31319 1966 46 NA NA DOROTHY 1966-07-27 18:00:00 TS 38.7000 -40.8000 70 hurdat_atl main 1336 1334 O_____________ hurdat_atl AL041966 38.7000 -40.8000 HU 70 1 6 53
1966204N31319 1966 46 NA NA DOROTHY 1966-07-27 21:00:00 TS 38.9123 -40.4717 main 1339 1336 P_____________ AL041966 38.9123 -40.4717 HU 72 1 7 48
1966204N31319 1966 46 NA NA DOROTHY 1966-07-28 00:00:00 TS 39.2000 -40.1000 75 hurdat_atl main 1341 1336 O_____________ hurdat_atl AL041966 39.2000 -40.1000 HU 75 1 10 42
1966204N31319 1966 46 NA NA DOROTHY 1966-07-28 03:00:00 TS 39.6277 -39.6506 main 1336 1333 P_____________ AL041966 39.6277 -39.6506 HU 72 1 11 38
1966204N31319 1966 46 NA NA DOROTHY 1966-07-28 06:00:00 TS 40.1000 -39.2000 70 hurdat_atl main 1333 1333 O_____________ hurdat_atl AL041966 40.1000 -39.2000 HU 70 1 11 36
1966204N31319 1966 46 NA NA DOROTHY 1966-07-28 09:00:00 TS 40.5149 -38.8048 main 1333 1326 P_____________ AL041966 40.5149 -38.8048 HU 70 1 10 34
1966204N31319 1966 46 NA NA DOROTHY 1966-07-28 12:00:00 TS 40.9000 -38.5000 70 993 hurdat_atl main 1328 1316 O_____________ hurdat_atl AL041966 40.9000 -38.5000 HU 70 993 1 8 27
1966204N31319 1966 46 NA NA DOROTHY 1966-07-28 15:00:00 TS 41.2498 -38.3119 main 1323 1306 P_____________ AL041966 41.2498 -38.3119 HU 70 994 1 7 18
1966204N31319 1966 46 NA NA DOROTHY 1966-07-28 18:00:00 TS 41.6000 -38.2000 70 996 hurdat_atl main 1306 1291 O_____________ hurdat_atl AL041966 41.6000 -38.2000 HU 70 996 1 8 12
1966204N31319 1966 46 NA NA DOROTHY 1966-07-28 21:00:00 TS 41.9999 -38.0997 main 1291 1274 P_____________ AL041966 41.9999 -38.0997 HU 67 1 8 11
1966204N31319 1966 46 NA NA DOROTHY 1966-07-29 00:00:00 TS 42.4000 -38.0000 65 hurdat_atl main 1274 1264 O_____________ hurdat_atl AL041966 42.4000 -38.0000 HU 65 1 8 13
1966204N31319 1966 46 NA NA DOROTHY 1966-07-29 03:00:00 TS 42.7500 -37.8574 main 1258 1255 P_____________ AL041966 42.7500 -37.8574 HU 62 0 7 17
1966204N31319 1966 46 NA NA DOROTHY 1966-07-29 06:00:00 TS 43.1000 -37.7000 60 hurdat_atl main 1256 1248 O_____________ hurdat_atl AL041966 43.1000 -37.7000 TS 60 0 8 18
1966204N31319 1966 46 NA NA DOROTHY 1966-07-29 09:00:00 TS 43.5000 -37.5278 main 1251 1239 P_____________ AL041966 43.5000 -37.5278 TS 57 0 8 15
1966204N31319 1966 46 NA NA DOROTHY 1966-07-29 12:00:00 TS 43.9000 -37.4000 55 996 hurdat_atl main 1239 1226 O_____________ hurdat_atl AL041966 43.9000 -37.4000 TS 55 996 0 8 8
1966204N31319 1966 46 NA NA DOROTHY 1966-07-29 15:00:00 TS 44.2575 -37.3771 main 1221 1209 P_____________ AL041966 44.2575 -37.3771 TS 52 997 0 7 0
1966204N31319 1966 46 NA NA DOROTHY 1966-07-29 18:00:00 TS 44.6000 -37.4000 50 999 hurdat_atl main 1209 1198 O_____________ hurdat_atl AL041966 44.6000 -37.4000 TS 50 999 0 7 0
1966204N31319 1966 46 NA NA DOROTHY 1966-07-29 21:00:00 TS 44.9500 -37.4074 main 1194 1184 P_____________ AL041966 44.9500 -37.4074 TS 50 0 7 0
1966204N31319 1966 46 NA NA DOROTHY 1966-07-30 00:00:00 TS 45.3000 -37.4000 50 hurdat_atl main 1184 1174 O_____________ hurdat_atl AL041966 45.3000 -37.4000 TS 50 0 7 3
1966204N31319 1966 46 NA NA DOROTHY 1966-07-30 03:00:00 TS 45.6425 -37.3649 main 1174 1170 P_____________ AL041966 45.6425 -37.3649 TS 47 0 7 6
1966204N31319 1966 46 NA NA DOROTHY 1966-07-30 06:00:00 TS 46.0000 -37.3000 45 hurdat_atl main 1170 1163 O_____________ hurdat_atl AL041966 46.0000 -37.3000 TS 45 0 7 6
1966204N31319 1966 46 NA NA DOROTHY 1966-07-30 09:00:00 TS 46.3848 -37.2441 main 1168 1162 P_____________ AL041966 46.3848 -37.2441 TS 45 0 8 10
1966204N31319 1966 46 NA NA DOROTHY 1966-07-30 12:00:00 TS 46.8000 -37.1000 45 hurdat_atl main 1167 1165 O_____________ hurdat_atl AL041966 46.8000 -37.1000 TS 45 0 9 22
1966204N31319 1966 46 NA NA DOROTHY 1966-07-30 15:00:00 TS 47.2128 -36.7656 main 1183 1183 P_____________ AL041966 47.2128 -36.7656 TS 45 0 10 28
1966204N31319 1966 46 NA NA DOROTHY 1966-07-30 18:00:00 ET 47.7000 -36.4000 45 hurdat_atl main 1207 1206 O_____________ hurdat_atl AL041966 47.7000 -36.4000 EX 45 -4 12 22
1966204N31319 1966 46 NA NA DOROTHY 1966-07-30 21:00:00 ET 48.3049 -36.1119 main 1225 1224 P_____________ AL041966 48.3049 -36.1119 EX 42 -4 13 12
1966204N31319 1966 46 NA NA DOROTHY 1966-07-31 00:00:00 ET 49.0000 -36.0000 40 hurdat_atl main 1232 1218 O_____________ hurdat_atl AL041966 49.0000 -36.0000 EX 40 -4 14 358
1966204N31319 1966 46 NA NA DOROTHY 1966-07-31 03:00:00 ET 49.7351 -36.1803 main 1218 1140 P_____________ AL041966 49.7351 -36.1803 EX 40 -4 15 348
1966204N31319 1966 46 NA NA DOROTHY 1966-07-31 06:00:00 ET 50.5000 -36.5000 40 hurdat_atl main 1140 1062 O_____________ hurdat_atl AL041966 50.5000 -36.5000 EX 40 -4 15 348
1966204N31319 1966 46 NA NA DOROTHY 1966-07-31 09:00:00 ET 51.2492 -36.6796 main 1062 972 P_____________ AL041966 51.2492 -36.6796 EX 37 -4 15 348
1966204N31319 1966 46 NA NA DOROTHY 1966-07-31 12:00:00 ET 52.0000 -37.0000 35 hurdat_atl main 972 885 O_____________ hurdat_atl AL041966 52.0000 -37.0000 EX 35 -4 16 338
1966204N31319 1966 46 NA NA DOROTHY 1966-07-31 15:00:00 ET 52.7519 -37.6414 main 874 783 P_____________ AL041966 52.7519 -37.6414 EX 35 -4 17 329
1966204N31319 1966 46 NA NA DOROTHY 1966-07-31 18:00:00 ET 53.5000 -38.5000 35 hurdat_atl main 781 O_____________ hurdat_atl AL041966 53.5000 -38.5000 EX 35 -4 18 326

IBTrACS Databaseについて

本データベースは、米国NOAAが公開する1842年以降の世界の熱帯低気圧のベストトラックデータアーカイブInternational Best Track Archive for Climate Stewardship (IBTrACS)を、ウェブで閲覧しやすい形式に変換したものです。

最終更新日:2021-12-08